sensor_id;sensor_type;location;lat;lon;timestamp;temperature;humidity
33717;DHT22;20046;50.746;7.072;2023-04-23T00:01:35;11.40;99.90
33717;DHT22;20046;50.746;7.072;2023-04-23T00:04:03;11.40;99.90
33717;DHT22;20046;50.746;7.072;2023-04-23T00:06:32;11.40;99.90
33717;DHT22;20046;50.746;7.072;2023-04-23T00:08:59;11.40;99.90
33717;DHT22;20046;50.746;7.072;2023-04-23T00:11:25;11.30;99.90
33717;DHT22;20046;50.746;7.072;2023-04-23T00:13:50;11.40;99.90
33717;DHT22;20046;50.746;7.072;2023-04-23T00:16:17;11.30;99.90
33717;DHT22;20046;50.746;7.072;2023-04-23T00:18:43;11.30;99.90
33717;DHT22;20046;50.746;7.072;2023-04-23T00:21:08;11.30;99.90
33717;DHT22;20046;50.746;7.072;2023-04-23T00:23:34;11.30;99.90
33717;DHT22;20046;50.746;7.072;2023-04-23T00:25:59;11.20;99.90
33717;DHT22;20046;50.746;7.072;2023-04-23T00:28:25;11.20;99.90
33717;DHT22;20046;50.746;7.072;2023-04-23T00:30:50;11.20;99.90
33717;DHT22;20046;50.746;7.072;2023-04-23T00:33:16;11.20;99.90
33717;DHT22;20046;50.746;7.072;2023-04-23T00:35:41;11.20;99.90
33717;DHT22;20046;50.746;7.072;2023-04-23T00:38:07;11.20;99.90
33717;DHT22;20046;50.746;7.072;2023-04-23T00:40:32;11.20;99.90
33717;DHT22;20046;50.746;7.072;2023-04-23T00:42:58;11.20;99.90
33717;DHT22;20046;50.746;7.072;2023-04-23T00:45:23;11.20;99.90
33717;DHT22;20046;50.746;7.072;2023-04-23T00:47:49;11.20;99.90
33717;DHT22;20046;50.746;7.072;2023-04-23T00:50:15;11.20;99.90
33717;DHT22;20046;50.746;7.072;2023-04-23T00:52:40;11.10;99.90
33717;DHT22;20046;50.746;7.072;2023-04-23T00:55:06;11.10;99.90
33717;DHT22;20046;50.746;7.072;2023-04-23T00:57:33;11.10;99.90
33717;DHT22;20046;50.746;7.072;2023-04-23T00:59:59;11.10;99.90
33717;DHT22;20046;50.746;7.072;2023-04-23T01:02:24;11.10;99.90
33717;DHT22;20046;50.746;7.072;2023-04-23T01:04:52;11.10;99.90
33717;DHT22;20046;50.746;7.072;2023-04-23T01:07:19;11.10;99.90
33717;DHT22;20046;50.746;7.072;2023-04-23T01:09:45;11.10;99.90
33717;DHT22;20046;50.746;7.072;2023-04-23T01:12:11;11.10;99.90
33717;DHT22;20046;50.746;7.072;2023-04-23T01:14:37;11.00;99.90
33717;DHT22;20046;50.746;7.072;2023-04-23T01:17:03;11.00;99.90
33717;DHT22;20046;50.746;7.072;2023-04-23T01:19:30;10.90;99.90
33717;DHT22;20046;50.746;7.072;2023-04-23T01:21:56;10.90;99.90
33717;DHT22;20046;50.746;7.072;2023-04-23T01:24:25;10.80;99.90
33717;DHT22;20046;50.746;7.072;2023-04-23T01:26:52;10.90;99.90
33717;DHT22;20046;50.746;7.072;2023-04-23T01:29:17;10.80;99.90
33717;DHT22;20046;50.746;7.072;2023-04-23T01:31:44;10.80;99.90
33717;DHT22;20046;50.746;7.072;2023-04-23T01:34:10;10.80;99.90
33717;DHT22;20046;50.746;7.072;2023-04-23T01:36:35;10.70;99.90
33717;DHT22;20046;50.746;7.072;2023-04-23T01:39:01;10.70;99.90
33717;DHT22;20046;50.746;7.072;2023-04-23T01:41:27;10.70;99.90
33717;DHT22;20046;50.746;7.072;2023-04-23T01:43:52;10.60;99.90
33717;DHT22;20046;50.746;7.072;2023-04-23T01:46:19;10.60;99.90
33717;DHT22;20046;50.746;7.072;2023-04-23T01:48:45;10.60;99.90
33717;DHT22;20046;50.746;7.072;2023-04-23T01:51:10;10.60;99.90
33717;DHT22;20046;50.746;7.072;2023-04-23T01:53:36;10.60;99.90
33717;DHT22;20046;50.746;7.072;2023-04-23T01:56:01;10.60;99.90
33717;DHT22;20046;50.746;7.072;2023-04-23T01:58:27;10.60;99.90
33717;DHT22;20046;50.746;7.072;2023-04-23T02:00:52;10.60;99.90
33717;DHT22;20046;50.746;7.072;2023-04-23T02:03:18;10.60;99.90
33717;DHT22;20046;50.746;7.072;2023-04-23T02:05:43;10.60;99.90
33717;DHT22;20046;50.746;7.072;2023-04-23T02:08:09;10.50;99.90
33717;DHT22;20046;50.746;7.072;2023-04-23T02:10:35;10.50;99.90
33717;DHT22;20046;50.746;7.072;2023-04-23T02:13:01;10.50;99.90
33717;DHT22;20046;50.746;7.072;2023-04-23T02:15:27;10.50;99.90
33717;DHT22;20046;50.746;7.072;2023-04-23T02:17:52;10.50;99.90
33717;DHT22;20046;50.746;7.072;2023-04-23T02:20:18;10.50;99.90
33717;DHT22;20046;50.746;7.072;2023-04-23T02:22:44;10.50;99.90
33717;DHT22;20046;50.746;7.072;2023-04-23T02:25:10;10.50;99.90
33717;DHT22;20046;50.746;7.072;2023-04-23T02:27:36;10.50;99.90
33717;DHT22;20046;50.746;7.072;2023-04-23T02:30:02;10.50;99.90
33717;DHT22;20046;50.746;7.072;2023-04-23T02:32:27;10.50;99.90
33717;DHT22;20046;50.746;7.072;2023-04-23T02:34:53;10.50;99.90
33717;DHT22;20046;50.746;7.072;2023-04-23T02:37:18;10.50;99.90
33717;DHT22;20046;50.746;7.072;2023-04-23T02:39:44;10.60;99.90
33717;DHT22;20046;50.746;7.072;2023-04-23T02:42:10;10.70;99.90
33717;DHT22;20046;50.746;7.072;2023-04-23T02:44:35;10.70;99.90
33717;DHT22;20046;50.746;7.072;2023-04-23T02:47:01;10.70;99.90
33717;DHT22;20046;50.746;7.072;2023-04-23T02:49:26;10.70;99.90
33717;DHT22;20046;50.746;7.072;2023-04-23T02:51:52;10.70;99.90
33717;DHT22;20046;50.746;7.072;2023-04-23T02:54:17;10.70;99.90
33717;DHT22;20046;50.746;7.072;2023-04-23T02:56:43;10.60;99.90
33717;DHT22;20046;50.746;7.072;2023-04-23T02:59:08;10.60;99.90
33717;DHT22;20046;50.746;7.072;2023-04-23T03:01:34;10.60;99.90
33717;DHT22;20046;50.746;7.072;2023-04-23T03:04:00;10.50;99.90
33717;DHT22;20046;50.746;7.072;2023-04-23T03:06:25;10.40;99.90
33717;DHT22;20046;50.746;7.072;2023-04-23T03:08:51;10.40;99.90
33717;DHT22;20046;50.746;7.072;2023-04-23T03:11:17;10.40;99.90
33717;DHT22;20046;50.746;7.072;2023-04-23T03:13:42;10.30;99.90
33717;DHT22;20046;50.746;7.072;2023-04-23T03:16:08;10.30;99.90
33717;DHT22;20046;50.746;7.072;2023-04-23T03:18:33;10.30;99.90
33717;DHT22;20046;50.746;7.072;2023-04-23T03:20:59;10.40;99.90
33717;DHT22;20046;50.746;7.072;2023-04-23T03:23:24;10.30;99.90
33717;DHT22;20046;50.746;7.072;2023-04-23T03:25:50;10.40;99.90
33717;DHT22;20046;50.746;7.072;2023-04-23T03:28:15;10.30;99.90
33717;DHT22;20046;50.746;7.072;2023-04-23T03:30:41;10.30;99.90
33717;DHT22;20046;50.746;7.072;2023-04-23T03:33:06;10.30;99.90
33717;DHT22;20046;50.746;7.072;2023-04-23T03:35:32;10.30;99.90
33717;DHT22;20046;50.746;7.072;2023-04-23T03:37:57;10.40;99.90
33717;DHT22;20046;50.746;7.072;2023-04-23T03:40:23;10.40;99.90
33717;DHT22;20046;50.746;7.072;2023-04-23T03:42:48;10.50;99.90
33717;DHT22;20046;50.746;7.072;2023-04-23T03:45:14;10.50;99.90
33717;DHT22;20046;50.746;7.072;2023-04-23T03:47:41;10.50;99.90
33717;DHT22;20046;50.746;7.072;2023-04-23T03:50:06;10.50;99.90
33717;DHT22;20046;50.746;7.072;2023-04-23T03:52:32;10.60;99.90
33717;DHT22;20046;50.746;7.072;2023-04-23T03:54:58;10.70;99.90
33717;DHT22;20046;50.746;7.072;2023-04-23T03:57:23;10.80;99.90
33717;DHT22;20046;50.746;7.072;2023-04-23T03:59:49;10.80;99.90
33717;DHT22;20046;50.746;7.072;2023-04-23T04:02:15;10.90;99.90
33717;DHT22;20046;50.746;7.072;2023-04-23T04:04:40;10.90;99.90
33717;DHT22;20046;50.746;7.072;2023-04-23T04:07:07;11.00;99.90
33717;DHT22;20046;50.746;7.072;2023-04-23T04:09:32;11.00;99.90
33717;DHT22;20046;50.746;7.072;2023-04-23T04:11:58;11.10;99.90
33717;DHT22;20046;50.746;7.072;2023-04-23T04:14:23;11.20;99.90
33717;DHT22;20046;50.746;7.072;2023-04-23T04:16:49;11.10;99.90
33717;DHT22;20046;50.746;7.072;2023-04-23T04:19:15;11.20;99.90
33717;DHT22;20046;50.746;7.072;2023-04-23T04:21:40;11.20;99.90
33717;DHT22;20046;50.746;7.072;2023-04-23T04:24:06;11.20;99.90
33717;DHT22;20046;50.746;7.072;2023-04-23T04:26:31;11.20;99.90
33717;DHT22;20046;50.746;7.072;2023-04-23T04:28:58;11.20;99.90
33717;DHT22;20046;50.746;7.072;2023-04-23T04:31:25;11.20;99.90
33717;DHT22;20046;50.746;7.072;2023-04-23T04:33:55;11.20;99.90
33717;DHT22;20046;50.746;7.072;2023-04-23T04:36:20;11.20;99.90
33717;DHT22;20046;50.746;7.072;2023-04-23T04:38:48;11.20;99.90
33717;DHT22;20046;50.746;7.072;2023-04-23T04:41:14;11.20;99.90
33717;DHT22;20046;50.746;7.072;2023-04-23T04:43:39;11.20;99.90
33717;DHT22;20046;50.746;7.072;2023-04-23T04:46:05;11.20;99.90
33717;DHT22;20046;50.746;7.072;2023-04-23T04:48:31;11.20;99.90
33717;DHT22;20046;50.746;7.072;2023-04-23T04:50:57;11.20;99.90
33717;DHT22;20046;50.746;7.072;2023-04-23T04:53:23;11.30;99.90
33717;DHT22;20046;50.746;7.072;2023-04-23T04:55:48;11.40;99.90
33717;DHT22;20046;50.746;7.072;2023-04-23T04:58:14;11.40;99.90
33717;DHT22;20046;50.746;7.072;2023-04-23T05:00:39;11.50;99.90
33717;DHT22;20046;50.746;7.072;2023-04-23T05:03:05;11.50;99.90
33717;DHT22;20046;50.746;7.072;2023-04-23T05:05:31;11.60;99.90
33717;DHT22;20046;50.746;7.072;2023-04-23T05:07:57;11.70;99.90
33717;DHT22;20046;50.746;7.072;2023-04-23T05:10:26;11.70;99.90
33717;DHT22;20046;50.746;7.072;2023-04-23T05:12:52;11.70;99.90
33717;DHT22;20046;50.746;7.072;2023-04-23T05:15:18;11.90;99.90
33717;DHT22;20046;50.746;7.072;2023-04-23T05:17:43;12.00;99.90
33717;DHT22;20046;50.746;7.072;2023-04-23T05:20:09;12.10;99.90
33717;DHT22;20046;50.746;7.072;2023-04-23T05:22:36;12.10;99.90
33717;DHT22;20046;50.746;7.072;2023-04-23T05:25:02;12.10;99.90
33717;DHT22;20046;50.746;7.072;2023-04-23T05:27:28;12.10;99.90
33717;DHT22;20046;50.746;7.072;2023-04-23T05:29:53;12.10;99.90
33717;DHT22;20046;50.746;7.072;2023-04-23T05:32:19;12.10;99.90
33717;DHT22;20046;50.746;7.072;2023-04-23T05:34:44;12.10;99.90
33717;DHT22;20046;50.746;7.072;2023-04-23T05:37:10;12.20;99.90
33717;DHT22;20046;50.746;7.072;2023-04-23T05:39:35;12.20;99.90
33717;DHT22;20046;50.746;7.072;2023-04-23T05:42:00;12.30;99.90
33717;DHT22;20046;50.746;7.072;2023-04-23T05:44:27;12.30;99.90
33717;DHT22;20046;50.746;7.072;2023-04-23T05:46:53;12.40;99.90
33717;DHT22;20046;50.746;7.072;2023-04-23T05:49:18;12.50;99.90
33717;DHT22;20046;50.746;7.072;2023-04-23T05:51:44;12.50;99.90
33717;DHT22;20046;50.746;7.072;2023-04-23T05:54:09;12.60;99.90
33717;DHT22;20046;50.746;7.072;2023-04-23T05:56:35;12.70;99.90
33717;DHT22;20046;50.746;7.072;2023-04-23T05:59:01;12.90;99.90
33717;DHT22;20046;50.746;7.072;2023-04-23T06:01:26;13.00;99.90
33717;DHT22;20046;50.746;7.072;2023-04-23T06:03:52;13.10;99.90
33717;DHT22;20046;50.746;7.072;2023-04-23T06:06:18;13.10;99.90
33717;DHT22;20046;50.746;7.072;2023-04-23T06:08:44;13.10;99.90
33717;DHT22;20046;50.746;7.072;2023-04-23T06:11:09;13.20;99.90
33717;DHT22;20046;50.746;7.072;2023-04-23T06:13:35;13.20;99.90
33717;DHT22;20046;50.746;7.072;2023-04-23T06:16:07;13.20;99.90
33717;DHT22;20046;50.746;7.072;2023-04-23T06:18:33;13.20;99.90
33717;DHT22;20046;50.746;7.072;2023-04-23T06:20:59;13.20;99.90
33717;DHT22;20046;50.746;7.072;2023-04-23T06:23:31;13.30;99.90
33717;DHT22;20046;50.746;7.072;2023-04-23T06:25:57;13.30;99.90
33717;DHT22;20046;50.746;7.072;2023-04-23T06:28:23;13.40;99.90
33717;DHT22;20046;50.746;7.072;2023-04-23T06:30:48;13.40;99.90
33717;DHT22;20046;50.746;7.072;2023-04-23T06:33:14;13.40;99.90
33717;DHT22;20046;50.746;7.072;2023-04-23T06:35:39;13.50;99.90
33717;DHT22;20046;50.746;7.072;2023-04-23T06:38:05;13.50;99.90
33717;DHT22;20046;50.746;7.072;2023-04-23T06:40:31;13.50;99.90
33717;DHT22;20046;50.746;7.072;2023-04-23T06:42:56;13.50;99.90
33717;DHT22;20046;50.746;7.072;2023-04-23T06:45:22;13.50;99.90
33717;DHT22;20046;50.746;7.072;2023-04-23T06:47:48;13.50;99.90
33717;DHT22;20046;50.746;7.072;2023-04-23T06:50:14;13.40;99.90
33717;DHT22;20046;50.746;7.072;2023-04-23T06:52:39;13.40;99.90
33717;DHT22;20046;50.746;7.072;2023-04-23T06:55:05;13.30;99.90
33717;DHT22;20046;50.746;7.072;2023-04-23T06:57:31;13.30;99.90
33717;DHT22;20046;50.746;7.072;2023-04-23T06:59:56;13.40;99.90
33717;DHT22;20046;50.746;7.072;2023-04-23T07:02:22;13.40;99.90
33717;DHT22;20046;50.746;7.072;2023-04-23T07:04:47;13.50;99.90
33717;DHT22;20046;50.746;7.072;2023-04-23T07:07:13;13.50;99.90
33717;DHT22;20046;50.746;7.072;2023-04-23T07:09:38;13.60;99.90
33717;DHT22;20046;50.746;7.072;2023-04-23T07:12:04;13.70;99.90
33717;DHT22;20046;50.746;7.072;2023-04-23T07:14:29;13.80;99.90
33717;DHT22;20046;50.746;7.072;2023-04-23T07:16:55;14.00;99.90
33717;DHT22;20046;50.746;7.072;2023-04-23T07:19:20;14.10;99.90
33717;DHT22;20046;50.746;7.072;2023-04-23T07:21:46;14.10;99.90
33717;DHT22;20046;50.746;7.072;2023-04-23T07:24:11;14.30;99.90
33717;DHT22;20046;50.746;7.072;2023-04-23T07:26:36;14.50;99.90
33717;DHT22;20046;50.746;7.072;2023-04-23T07:29:05;15.00;99.90
33717;DHT22;20046;50.746;7.072;2023-04-23T07:31:32;15.60;99.90
33717;DHT22;20046;50.746;7.072;2023-04-23T07:33:57;16.20;99.90
33717;DHT22;20046;50.746;7.072;2023-04-23T07:36:23;16.50;99.90
33717;DHT22;20046;50.746;7.072;2023-04-23T07:38:48;17.00;99.90
33717;DHT22;20046;50.746;7.072;2023-04-23T07:41:15;17.40;99.90
33717;DHT22;20046;50.746;7.072;2023-04-23T07:43:41;17.70;99.90
33717;DHT22;20046;50.746;7.072;2023-04-23T07:46:06;18.00;99.90
33717;DHT22;20046;50.746;7.072;2023-04-23T07:48:32;18.10;99.90
33717;DHT22;20046;50.746;7.072;2023-04-23T07:50:59;18.20;99.90
33717;DHT22;20046;50.746;7.072;2023-04-23T07:53:24;18.20;99.90
33717;DHT22;20046;50.746;7.072;2023-04-23T07:55:56;18.20;99.90
33717;DHT22;20046;50.746;7.072;2023-04-23T07:58:22;18.30;99.90
33717;DHT22;20046;50.746;7.072;2023-04-23T08:00:47;19.10;99.90
33717;DHT22;20046;50.746;7.072;2023-04-23T08:03:13;20.00;99.90
33717;DHT22;20046;50.746;7.072;2023-04-23T08:05:38;21.00;99.90
33717;DHT22;20046;50.746;7.072;2023-04-23T08:08:05;21.50;99.90
33717;DHT22;20046;50.746;7.072;2023-04-23T08:10:31;21.00;99.90
33717;DHT22;20046;50.746;7.072;2023-04-23T08:12:57;20.00;99.90
33717;DHT22;20046;50.746;7.072;2023-04-23T08:15:22;19.50;99.90
33717;DHT22;20046;50.746;7.072;2023-04-23T08:17:48;19.30;99.90
33717;DHT22;20046;50.746;7.072;2023-04-23T08:20:13;19.00;99.90
33717;DHT22;20046;50.746;7.072;2023-04-23T08:22:39;18.60;99.90
33717;DHT22;20046;50.746;7.072;2023-04-23T08:25:04;18.10;99.90
33717;DHT22;20046;50.746;7.072;2023-04-23T08:27:30;18.00;99.90
33717;DHT22;20046;50.746;7.072;2023-04-23T08:29:55;17.80;99.90
33717;DHT22;20046;50.746;7.072;2023-04-23T08:32:21;17.50;99.90
33717;DHT22;20046;50.746;7.072;2023-04-23T08:34:46;17.30;99.90
33717;DHT22;20046;50.746;7.072;2023-04-23T08:37:12;17.20;99.90
33717;DHT22;20046;50.746;7.072;2023-04-23T08:39:37;17.80;99.90
33717;DHT22;20046;50.746;7.072;2023-04-23T08:42:09;18.50;99.90
33717;DHT22;20046;50.746;7.072;2023-04-23T08:44:37;19.90;99.90
33717;DHT22;20046;50.746;7.072;2023-04-23T08:47:03;21.00;99.90
33717;DHT22;20046;50.746;7.072;2023-04-23T08:49:30;21.60;99.90
33717;DHT22;20046;50.746;7.072;2023-04-23T08:51:57;22.30;99.90
33717;DHT22;20046;50.746;7.072;2023-04-23T08:54:24;22.70;99.90
33717;DHT22;20046;50.746;7.072;2023-04-23T08:56:51;23.10;99.40
33717;DHT22;20046;50.746;7.072;2023-04-23T08:59:20;22.80;98.80
33717;DHT22;20046;50.746;7.072;2023-04-23T09:01:47;22.20;98.90
33717;DHT22;20046;50.746;7.072;2023-04-23T09:04:13;21.70;99.70
33717;DHT22;20046;50.746;7.072;2023-04-23T09:06:41;21.80;98.90
33717;DHT22;20046;50.746;7.072;2023-04-23T09:09:07;22.30;98.90
33717;DHT22;20046;50.746;7.072;2023-04-23T09:11:34;22.90;98.10
33717;DHT22;20046;50.746;7.072;2023-04-23T09:14:01;23.20;96.90
33717;DHT22;20046;50.746;7.072;2023-04-23T09:16:26;23.50;96.20
33717;DHT22;20046;50.746;7.072;2023-04-23T09:18:52;23.80;95.00
33717;DHT22;20046;50.746;7.072;2023-04-23T09:21:19;23.50;94.30
33717;DHT22;20046;50.746;7.072;2023-04-23T09:23:44;23.30;94.30
33717;DHT22;20046;50.746;7.072;2023-04-23T09:26:10;22.90;93.70
33717;DHT22;20046;50.746;7.072;2023-04-23T09:28:43;22.30;94.40
33717;DHT22;20046;50.746;7.072;2023-04-23T09:31:08;21.80;94.40
33717;DHT22;20046;50.746;7.072;2023-04-23T09:33:34;21.40;94.90
33717;DHT22;20046;50.746;7.072;2023-04-23T09:36:09;21.70;94.10
33717;DHT22;20046;50.746;7.072;2023-04-23T09:38:38;22.20;94.00
33717;DHT22;20046;50.746;7.072;2023-04-23T09:41:19;22.30;93.90
33717;DHT22;20046;50.746;7.072;2023-04-23T09:43:46;22.00;93.80
33717;DHT22;20046;50.746;7.072;2023-04-23T09:46:12;21.50;93.90
33717;DHT22;20046;50.746;7.072;2023-04-23T09:48:40;21.30;94.40
33717;DHT22;20046;50.746;7.072;2023-04-23T09:51:13;21.00;94.30
33717;DHT22;20046;50.746;7.072;2023-04-23T09:53:40;20.40;95.10
33717;DHT22;20046;50.746;7.072;2023-04-23T09:56:06;20.10;95.70
33717;DHT22;20046;50.746;7.072;2023-04-23T09:58:31;20.00;95.70
33717;DHT22;20046;50.746;7.072;2023-04-23T10:01:04;20.00;96.00
33717;DHT22;20046;50.746;7.072;2023-04-23T10:03:30;20.10;95.90
33717;DHT22;20046;50.746;7.072;2023-04-23T10:05:56;20.10;96.00
33717;DHT22;20046;50.746;7.072;2023-04-23T10:08:23;19.90;95.50
33717;DHT22;20046;50.746;7.072;2023-04-23T10:10:48;20.40;96.70
33717;DHT22;20046;50.746;7.072;2023-04-23T10:13:15;21.20;95.40
33717;DHT22;20046;50.746;7.072;2023-04-23T10:15:41;22.00;94.70
33717;DHT22;20046;50.746;7.072;2023-04-23T10:18:07;22.30;93.60
33717;DHT22;20046;50.746;7.072;2023-04-23T10:20:32;22.30;93.50
33717;DHT22;20046;50.746;7.072;2023-04-23T10:22:58;21.70;93.40
33717;DHT22;20046;50.746;7.072;2023-04-23T10:25:24;21.00;94.00
33717;DHT22;20046;50.746;7.072;2023-04-23T10:27:50;20.30;94.60
33717;DHT22;20046;50.746;7.072;2023-04-23T10:30:16;19.90;95.20
33717;DHT22;20046;50.746;7.072;2023-04-23T10:32:43;19.60;95.00
33717;DHT22;20046;50.746;7.072;2023-04-23T10:35:09;19.60;95.40
33717;DHT22;20046;50.746;7.072;2023-04-23T10:37:35;19.70;95.50
33717;DHT22;20046;50.746;7.072;2023-04-23T10:40:05;19.70;94.50
33717;DHT22;20046;50.746;7.072;2023-04-23T10:42:33;19.70;94.10
33717;DHT22;20046;50.746;7.072;2023-04-23T10:44:59;19.70;94.30
33717;DHT22;20046;50.746;7.072;2023-04-23T10:47:24;19.40;94.10
33717;DHT22;20046;50.746;7.072;2023-04-23T10:49:50;19.10;94.50
33717;DHT22;20046;50.746;7.072;2023-04-23T10:52:16;18.90;95.10
33717;DHT22;20046;50.746;7.072;2023-04-23T10:54:43;18.80;95.30
33717;DHT22;20046;50.746;7.072;2023-04-23T10:57:11;18.80;94.90
33717;DHT22;20046;50.746;7.072;2023-04-23T10:59:37;18.90;95.10
33717;DHT22;20046;50.746;7.072;2023-04-23T11:02:07;19.10;95.30
33717;DHT22;20046;50.746;7.072;2023-04-23T11:04:33;19.10;94.30
33717;DHT22;20046;50.746;7.072;2023-04-23T11:07:08;19.20;95.00
33717;DHT22;20046;50.746;7.072;2023-04-23T11:09:45;19.40;95.30
33717;DHT22;20046;50.746;7.072;2023-04-23T11:12:31;19.50;94.50
33717;DHT22;20046;50.746;7.072;2023-04-23T11:14:56;19.50;93.70
33717;DHT22;20046;50.746;7.072;2023-04-23T11:22:37;19.70;93.70
33717;DHT22;20046;50.746;7.072;2023-04-23T11:25:04;19.90;92.60
33717;DHT22;20046;50.746;7.072;2023-04-23T11:27:30;20.00;92.60
33717;DHT22;20046;50.746;7.072;2023-04-23T11:29:56;20.20;92.90
33717;DHT22;20046;50.746;7.072;2023-04-23T11:32:22;20.10;92.30
33717;DHT22;20046;50.746;7.072;2023-04-23T11:34:48;20.10;92.10
33717;DHT22;20046;50.746;7.072;2023-04-23T11:37:16;20.40;92.20
33717;DHT22;20046;50.746;7.072;2023-04-23T11:39:42;20.90;92.40
33717;DHT22;20046;50.746;7.072;2023-04-23T11:42:11;21.50;92.40
33717;DHT22;20046;50.746;7.072;2023-04-23T11:44:37;21.80;91.50
33717;DHT22;20046;50.746;7.072;2023-04-23T11:47:03;22.00;90.80
33717;DHT22;20046;50.746;7.072;2023-04-23T11:49:31;22.40;90.10
33717;DHT22;20046;50.746;7.072;2023-04-23T11:51:57;23.10;89.90
33717;DHT22;20046;50.746;7.072;2023-04-23T11:54:26;24.00;87.30
33717;DHT22;20046;50.746;7.072;2023-04-23T11:56:54;24.70;82.90
33717;DHT22;20046;50.746;7.072;2023-04-23T11:59:19;25.10;82.10
33717;DHT22;20046;50.746;7.072;2023-04-23T12:01:46;25.50;78.60
33717;DHT22;20046;50.746;7.072;2023-04-23T12:04:15;25.40;76.30
33717;DHT22;20046;50.746;7.072;2023-04-23T12:06:42;25.10;74.80
33717;DHT22;20046;50.746;7.072;2023-04-23T12:09:08;25.00;75.30
33717;DHT22;20046;50.746;7.072;2023-04-23T12:11:38;25.80;74.50
33717;DHT22;20046;50.746;7.072;2023-04-23T12:14:03;26.80;73.80
33717;DHT22;20046;50.746;7.072;2023-04-23T12:16:33;27.40;70.00
33717;DHT22;20046;50.746;7.072;2023-04-23T12:18:59;27.90;67.30
33717;DHT22;20046;50.746;7.072;2023-04-23T12:21:25;28.10;67.80
33717;DHT22;20046;50.746;7.072;2023-04-23T12:23:52;28.90;66.70
33717;DHT22;20046;50.746;7.072;2023-04-23T12:26:18;29.50;64.10
33717;DHT22;20046;50.746;7.072;2023-04-23T12:28:54;29.70;61.10
33717;DHT22;20046;50.746;7.072;2023-04-23T12:33:45;29.10;58.90
33717;DHT22;20046;50.746;7.072;2023-04-23T12:36:13;28.80;59.40
33717;DHT22;20046;50.746;7.072;2023-04-23T12:38:39;28.70;60.20
33717;DHT22;20046;50.746;7.072;2023-04-23T12:41:06;27.80;60.70
33717;DHT22;20046;50.746;7.072;2023-04-23T12:43:32;26.90;59.60
33717;DHT22;20046;50.746;7.072;2023-04-23T12:45:57;25.30;63.40
33717;DHT22;20046;50.746;7.072;2023-04-23T12:48:23;24.30;63.90
33717;DHT22;20046;50.746;7.072;2023-04-23T12:50:48;23.60;64.50
33717;DHT22;20046;50.746;7.072;2023-04-23T12:53:14;22.60;66.60
33717;DHT22;20046;50.746;7.072;2023-04-23T12:55:39;22.90;68.00
33717;DHT22;20046;50.746;7.072;2023-04-23T12:58:07;23.40;66.70
33717;DHT22;20046;50.746;7.072;2023-04-23T13:00:32;24.00;66.00
33717;DHT22;20046;50.746;7.072;2023-04-23T13:02:58;24.80;66.40
33717;DHT22;20046;50.746;7.072;2023-04-23T13:05:23;24.70;64.50
33717;DHT22;20046;50.746;7.072;2023-04-23T13:07:49;24.60;64.80
33717;DHT22;20046;50.746;7.072;2023-04-23T13:10:15;24.60;65.60
33717;DHT22;20046;50.746;7.072;2023-04-23T13:12:42;24.20;66.20
33717;DHT22;20046;50.746;7.072;2023-04-23T13:15:07;23.00;65.90
33717;DHT22;20046;50.746;7.072;2023-04-23T13:17:34;22.30;67.50
33717;DHT22;20046;50.746;7.072;2023-04-23T13:19:59;21.40;68.50
33717;DHT22;20046;50.746;7.072;2023-04-23T13:22:25;20.90;70.80
33717;DHT22;20046;50.746;7.072;2023-04-23T13:24:53;20.50;71.10
33717;DHT22;20046;50.746;7.072;2023-04-23T13:27:21;20.20;72.10
33717;DHT22;20046;50.746;7.072;2023-04-23T13:29:46;19.90;72.40
33717;DHT22;20046;50.746;7.072;2023-04-23T13:32:12;19.50;73.10
33717;DHT22;20046;50.746;7.072;2023-04-23T13:34:37;19.30;73.60
33717;DHT22;20046;50.746;7.072;2023-04-23T13:37:03;19.10;75.00
33717;DHT22;20046;50.746;7.072;2023-04-23T13:39:30;18.80;76.70
33717;DHT22;20046;50.746;7.072;2023-04-23T13:41:56;17.90;88.70
33717;DHT22;20046;50.746;7.072;2023-04-23T13:44:21;17.00;99.90
33717;DHT22;20046;50.746;7.072;2023-04-23T13:46:47;16.00;99.90
33717;DHT22;20046;50.746;7.072;2023-04-23T13:49:13;15.70;99.90
33717;DHT22;20046;50.746;7.072;2023-04-23T13:51:39;15.80;99.90
33717;DHT22;20046;50.746;7.072;2023-04-23T13:54:04;15.90;99.90
33717;DHT22;20046;50.746;7.072;2023-04-23T13:56:31;16.10;99.90
33717;DHT22;20046;50.746;7.072;2023-04-23T13:58:56;16.30;99.90
33717;DHT22;20046;50.746;7.072;2023-04-23T14:01:27;16.60;99.90
33717;DHT22;20046;50.746;7.072;2023-04-23T14:03:52;16.90;99.90
33717;DHT22;20046;50.746;7.072;2023-04-23T14:06:18;17.00;99.90
33717;DHT22;20046;50.746;7.072;2023-04-23T14:08:43;17.10;99.90
33717;DHT22;20046;50.746;7.072;2023-04-23T14:11:09;17.20;99.90
33717;DHT22;20046;50.746;7.072;2023-04-23T14:13:35;17.20;99.90
33717;DHT22;20046;50.746;7.072;2023-04-23T14:16:00;17.30;99.90
33717;DHT22;20046;50.746;7.072;2023-04-23T14:18:26;17.40;99.90
33717;DHT22;20046;50.746;7.072;2023-04-23T14:20:52;17.40;99.90
33717;DHT22;20046;50.746;7.072;2023-04-23T14:25:46;17.40;99.90
33717;DHT22;20046;50.746;7.072;2023-04-23T14:28:45;17.40;99.90
33717;DHT22;20046;50.746;7.072;2023-04-23T14:31:03;17.40;99.90
33717;DHT22;20046;50.746;7.072;2023-04-23T14:33:29;17.50;99.90
33717;DHT22;20046;50.746;7.072;2023-04-23T14:35:54;17.60;99.90
33717;DHT22;20046;50.746;7.072;2023-04-23T14:38:22;17.70;99.90
33717;DHT22;20046;50.746;7.072;2023-04-23T14:40:47;17.80;99.90
33717;DHT22;20046;50.746;7.072;2023-04-23T14:43:13;17.90;99.90
33717;DHT22;20046;50.746;7.072;2023-04-23T14:45:38;17.90;99.90
33717;DHT22;20046;50.746;7.072;2023-04-23T14:48:05;18.00;99.90
33717;DHT22;20046;50.746;7.072;2023-04-23T14:50:30;18.00;99.90
33717;DHT22;20046;50.746;7.072;2023-04-23T14:52:56;18.00;99.90
33717;DHT22;20046;50.746;7.072;2023-04-23T14:55:23;18.00;99.90
33717;DHT22;20046;50.746;7.072;2023-04-23T14:57:48;17.80;99.70
33717;DHT22;20046;50.746;7.072;2023-04-23T15:00:14;17.50;99.90
33717;DHT22;20046;50.746;7.072;2023-04-23T15:02:41;17.60;99.90
33717;DHT22;20046;50.746;7.072;2023-04-23T15:05:07;17.50;99.90
33717;DHT22;20046;50.746;7.072;2023-04-23T15:07:36;17.50;99.90
33717;DHT22;20046;50.746;7.072;2023-04-23T15:10:01;17.50;99.90
33717;DHT22;20046;50.746;7.072;2023-04-23T15:14:55;17.60;99.90
33717;DHT22;20046;50.746;7.072;2023-04-23T15:17:21;17.60;99.80
33717;DHT22;20046;50.746;7.072;2023-04-23T15:19:47;17.60;99.80
33717;DHT22;20046;50.746;7.072;2023-04-23T15:22:12;17.70;99.90
33717;DHT22;20046;50.746;7.072;2023-04-23T15:24:38;17.70;99.90
33717;DHT22;20046;50.746;7.072;2023-04-23T15:27:03;17.70;99.90
33717;DHT22;20046;50.746;7.072;2023-04-23T15:29:29;17.60;99.70
33717;DHT22;20046;50.746;7.072;2023-04-23T15:31:55;17.60;99.90
33717;DHT22;20046;50.746;7.072;2023-04-23T15:34:22;17.50;99.90
33717;DHT22;20046;50.746;7.072;2023-04-23T15:36:48;17.50;99.90